Página principal
METAR-TAF:

METAR-TAF

Aeroportos :

Jerez de la Frontera, Espanha

latitude: 36-45N, longitude: 006-04W, altura: 27 m

Observação actual do tempo

O boletim foi feito há 20 minutos, às 03:00 UTC
Vento 6 kt de nor-noroeste
Temperatura 13°C
Humidade 94%
Pressão 1019 hPa
Visibilidade 10 km ou mais
sem nuvens abaixo de 1500 metros e sem cumulonimbus

METAR: LEJR 130300Z AUTO 33006KT CAVOK 13/12 Q1019

Hora: 04:20 (03:20 UTC)

Previsão

O boletim foi feito há 4 horas e 20 minutos, às 23:00 UTC
Previsão válida de 13 às 00 UTC a 13 às 24 UTC
Vento 5 kt de norte
Visibilidade 10 km ou mais
Poucas nuvensa uma altura de 4000 ft
Probabilidade 40% :
Temporariamente
de 13 às 02 UTC a 13 às 08 UTC
Visibilidade: 4000 m
neblina

TAF: LEJR 122300Z 1300/1324 01005KT 9999 FEW040 TX23/1315Z TN10/1306Z PROB40 TEMPO 1302/1308 4000 BR

Observações e previsões do tempo de mais de 4000 aeroportos (mensagens METAR e TAF).

As estações disponíveis são os pontos amarelos e vermelhos sobre o mapa.

Mova o rato sobre o mapa para ver o nome da estação.

Depois clique no ponto para visualizar as observações e previsões meteorológicas.

Para alterar o mapa : clique nos botões verdes com uma cruz preta para aumentar o zoom; no botão verde com uma pitada de zoom; ou nas setas verdes para mapas adjacentes.


METAR-TAF: